This is the latest recevied weather packets stored in our database for station/object EB5AGF-13. If no packets are shown the sender has not sent any weather packets the latest 1 day(s).
| Time | Temp. | Humidity | Pressure | Rain* | Wind** | Luminosity | Snow |
|---|---|---|---|---|---|---|---|
| 1836274618 | 22.78° C | 85% | 1018 hPa | 0 mm | 0.89 m/s, 329° | 0 W/m² | - |
| 1836274476 | 22.78° C | 86% | 1018 hPa | 0 mm | 0 m/s | 0 W/m² | - |
| 1836274315 | 23.33° C | 85% | 1017.9 hPa | 0 mm | 0.45 m/s, 333° | 0 W/m² | - |
| 1836274174 | 22.78° C | 86% | 1018.2 hPa | 0 mm | 0.89 m/s, 356° | 0 W/m² | - |
| 1836273994 | 23.33° C | 85% | 1018 hPa | 0 mm | 0.89 m/s, 11° | 0 W/m² | - |
| 1778071800 | 22.22° C | 64% | 1007.8 hPa | 0 mm | 3.13 m/s, 68° | 689 W/m² | - |
| 1778071495 | 22.22° C | 65% | 1007.7 hPa | 0 mm | 1.79 m/s, 241° | 681 W/m² | - |
| 1778071190 | 22.22° C | 61% | 1007.9 hPa | 0 mm | 1.79 m/s, 44° | 685 W/m² | - |
| 1778070886 | 22.22° C | 60% | 1007.7 hPa | 0 mm | 1.79 m/s, 69° | 668 W/m² | - |
| 1778070583 | 22.22° C | 65% | 1007.7 hPa | 0 mm | 2.68 m/s, 34° | 695 W/m² | - |
| 1778070279 | 22.22° C | 63% | 1007.7 hPa | 0 mm | 1.79 m/s, 76° | 680 W/m² | - |
| 1778069972 | 21.67° C | 66% | 1008 hPa | 0 mm | 1.34 m/s, 18° | 755 W/m² | - |
| 1778069670 | 22.22° C | 66% | 1008.1 hPa | 0 mm | 1.79 m/s, 42° | 772 W/m² | - |
| 1778069367 | 22.22° C | 64% | 1008.2 hPa | 0 mm | 1.79 m/s, 46° | 743 W/m² | - |
| 1778069064 | 22.22° C | 66% | 1008.1 hPa | 0 mm | 2.24 m/s, 35° | 168 W/m² | - |
| 1778068758 | 22.22° C | 66% | 1008 hPa | 0 mm | 1.34 m/s, 333° | 723 W/m² | - |
| 1778068454 | 21.67° C | 69% | 1008.2 hPa | 0 mm | 1.79 m/s, 58° | 706 W/m² | - |
| 1778068151 | 21.67° C | 70% | 1008.2 hPa | 0 mm | 1.79 m/s, 28° | 611 W/m² | - |
| 1778067847 | 21.67° C | 71% | 1008.2 hPa | 0 mm | 1.79 m/s, 69° | 252 W/m² | - |
| 1778067542 | 21.67° C | 71% | 1008.1 hPa | 0 mm | 3.58 m/s, 16° | 212 W/m² | - |
| 1778067238 | 21.67° C | 72% | 1008.3 hPa | 0 mm | 3.58 m/s, 37° | 322 W/m² | - |
| 1778066934 | 21.11° C | 72% | 1008.4 hPa | 0 mm | 3.13 m/s, 12° | 169 W/m² | - |
| 1778066631 | 21.67° C | 72% | 1008.3 hPa | 0 mm | 3.58 m/s, 38° | 202 W/m² | - |
| 1778066326 | 21.67° C | 72% | 1008.2 hPa | 0 mm | 2.68 m/s, 17° | 270 W/m² | - |
| 1778066023 | 21.11° C | 73% | 1008.4 hPa | 0 mm | 2.68 m/s, 48° | 762 W/m² | - |
* Rain latest hour (hover to see other rain measurements)
** Current wind speed in m/s (hover to see current wind gust speed)